Hamburg, Arkansas
Current Conditions -  °F | °C
As of 11:53 AM on Sunday 21 Dec 2014 (Local Time) from KLLQ Reporting Station
Clear Clear  
Wind Chill: 54°   Ceiling: Unl
Heat Index: 54°   Visibility: 10mi
Dew Point: 35°   Wind: 6mph
Humidity: 49%   Direction: NA
Pressure: 30.12"   Gusts: NA
Location:  33.23°N, 91.8°W
Report Text: KLLQ 211753Z AUTO VRB05KT 10SM CLR 12/02 A3012 RMK AO2 SLP197 T01220017 10122 21006 58022
Loading
Personal Weather Stations






























Interactive Weather Map New forecast layout! Learn more

10-Day Weather Forecast

Advertisements
Track Severe Weather on mobile